Time;durP1;ratioP1;P1;durP2;ratioP2;P2;SDS_P1;SDS_P2;PMS_P1;PMS_P2;Temp;Humidity;BMP_temperature;BMP_pressure;BME280_temperature;BME280_humidity;BME280_pressure;Samples;Min_cycle;Max_cycle;Signal;HPM_P1;HPM_P2
2023/12/28 00:01:34;;;;;;;1999.90;999.90;;;1.20;94.20;;;;;;5047988;28;20036;-84
2023/12/28 00:04:00;;;;;;;1999.90;999.90;;;1.30;94.10;;;;;;5031230;28;20079;-83
2023/12/28 00:06:25;;;;;;;1999.90;999.90;;;1.20;94.00;;;;;;5046622;28;20288;-84
2023/12/28 00:08:51;;;;;;;1999.90;999.90;;;1.20;93.90;;;;;;5032596;28;20056;-84
2023/12/28 00:11:17;;;;;;;1999.90;999.90;;;1.40;94.00;;;;;;5047963;28;20579;-84
2023/12/28 00:13:43;;;;;;;1999.90;999.90;;;1.40;93.80;;;;;;5046982;28;20159;-84
2023/12/28 00:16:09;;;;;;;1999.90;999.90;;;1.30;93.40;;;;;;5051780;28;20067;-83
2023/12/28 00:18:34;;;;;;;1999.90;999.90;;;1.20;93.50;;;;;;5036031;28;20836;-85
2023/12/28 00:21:00;;;;;;;1999.90;999.90;;;1.20;93.50;;;;;;5046879;28;20487;-83
2023/12/28 00:23:26;;;;;;;1999.90;999.90;;;1.10;93.60;;;;;;5045119;28;20025;-84
2023/12/28 00:25:51;;;;;;;1999.90;999.90;;;1.10;93.70;;;;;;5031732;28;20367;-87
2023/12/28 00:28:17;;;;;;;1999.90;999.90;;;1.20;93.60;;;;;;5044753;28;20043;-84
2023/12/28 00:30:43;;;;;;;1999.90;999.90;;;1.10;93.40;;;;;;5044178;28;20037;-85
2023/12/28 00:33:08;;;;;;;1999.90;999.90;;;1.00;93.40;;;;;;5029780;28;20092;-83
2023/12/28 00:35:34;;;;;;;1999.90;999.90;;;1.00;93.70;;;;;;5028823;28;20040;-86
2023/12/28 00:38:00;;;;;;;1999.90;999.90;;;1.10;93.50;;;;;;5045167;28;20045;-85
2023/12/28 00:40:25;;;;;;;1999.90;999.90;;;1.00;93.50;;;;;;5048281;28;20187;-85
2023/12/28 00:42:51;;;;;;;1999.90;999.90;;;1.00;93.70;;;;;;5048025;28;20029;-84
2023/12/28 00:45:17;;;;;;;1999.90;999.90;;;1.00;93.60;;;;;;5047671;28;20169;-86
2023/12/28 00:47:43;;;;;;;1999.90;999.90;;;0.90;93.50;;;;;;5047812;28;20112;-83
2023/12/28 00:50:11;;;;;;;1999.90;999.90;;;1.00;93.40;;;;;;5051814;28;20045;-84
2023/12/28 00:52:37;;;;;;;1999.90;999.90;;;0.90;93.50;;;;;;5052887;28;20044;-82
2023/12/28 00:55:03;;;;;;;1999.90;999.90;;;0.90;93.40;;;;;;5050335;28;20041;-83
2023/12/28 00:57:29;;;;;;;1999.90;999.90;;;1.10;93.80;;;;;;5055705;28;20029;-84
2023/12/28 00:59:55;;;;;;;1999.90;999.90;;;1.40;93.50;;;;;;5037621;28;20124;-82
2023/12/28 01:02:21;;;;;;;1999.90;999.90;;;1.40;93.20;;;;;;5053438;28;20033;-84
2023/12/28 01:04:46;;;;;;;1999.90;999.90;;;1.30;93.00;;;;;;5050499;28;20144;-83
2023/12/28 01:07:12;;;;;;;1999.90;999.90;;;1.20;93.00;;;;;;5050972;28;20818;-83
2023/12/28 01:09:38;;;;;;;1999.90;999.90;;;1.00;92.90;;;;;;5048220;28;20039;-84
2023/12/28 01:12:05;;;;;;;1999.90;999.90;;;0.90;93.60;;;;;;5031629;28;20125;-84
2023/12/28 01:14:30;;;;;;;1999.90;999.90;;;0.80;93.20;;;;;;5049552;28;20084;-85
2023/12/28 01:16:56;;;;;;;1999.90;999.90;;;0.70;93.40;;;;;;5052896;28;20071;-84
2023/12/28 01:19:23;;;;;;;1999.90;999.90;;;0.70;93.50;;;;;;5052751;28;20033;-83
2023/12/28 01:21:49;;;;;;;1999.90;999.90;;;0.80;93.90;;;;;;5066378;28;20037;-83
2023/12/28 01:24:15;;;;;;;1999.90;999.90;;;0.90;93.60;;;;;;5068234;28;20017;-82
2023/12/28 01:26:41;;;;;;;1999.90;999.90;;;1.00;93.70;;;;;;5051928;28;20071;-83
2023/12/28 01:29:06;;;;;;;1999.90;999.90;;;1.10;93.70;;;;;;5064463;28;20029;-82
2023/12/28 01:31:32;;;;;;;1999.90;999.90;;;1.10;93.70;;;;;;5066764;28;20032;-81
2023/12/28 01:33:58;;;;;;;1999.90;999.90;;;1.20;93.60;;;;;;5067528;28;20120;-84
2023/12/28 01:36:23;;;;;;;1999.90;999.90;;;1.10;93.40;;;;;;5063253;28;20094;-83
2023/12/28 01:38:49;;;;;;;1999.90;999.90;;;1.20;93.50;;;;;;5035067;28;20119;-85
2023/12/28 01:41:15;;;;;;;1999.90;999.90;;;1.30;93.30;;;;;;5034234;28;20045;-84
2023/12/28 01:43:44;;;;;;;1999.90;999.90;;;1.30;92.90;;;;;;5047583;28;20025;-84
2023/12/28 01:46:16;;;;;;;1999.90;999.90;;;1.20;92.80;;;;;;5046716;28;20562;-85
2023/12/28 01:48:44;;;;;;;1999.90;999.90;;;1.30;92.80;;;;;;5044825;28;20025;-85
2023/12/28 01:51:10;;;;;;;1999.90;999.90;;;1.40;92.60;;;;;;5044951;28;20057;-85
2023/12/28 01:53:36;;;;;;;1999.90;999.90;;;1.10;92.30;;;;;;5046956;28;20049;-83
2023/12/28 01:56:04;;;;;;;1999.90;999.90;;;1.00;92.40;;;;;;5046919;28;20036;-83
2023/12/28 01:58:33;;;;;;;1999.90;999.90;;;1.10;92.80;;;;;;5030599;28;20028;-84
2023/12/28 02:00:59;;;;;;;1999.90;999.90;;;1.20;92.70;;;;;;5031496;28;20025;-84
2023/12/28 02:03:25;;;;;;;1999.90;999.90;;;1.40;92.50;;;;;;5044242;28;20021;-83
2023/12/28 02:05:51;;;;;;;1999.90;999.90;;;1.50;92.10;;;;;;5045524;28;20476;-85
2023/12/28 02:08:17;;;;;;;1999.90;999.90;;;1.40;91.90;;;;;;5046987;28;20040;-86
2023/12/28 02:10:43;;;;;;;1999.90;999.90;;;1.40;92.00;;;;;;5042502;28;20309;-86
2023/12/28 02:13:09;;;;;;;1999.90;999.90;;;1.50;91.70;;;;;;5046628;28;20056;-83
2023/12/28 02:15:35;;;;;;;1999.90;999.90;;;1.50;91.50;;;;;;5042515;28;20439;-84
2023/12/28 02:18:11;;;;;;;1999.90;999.90;;;1.50;91.50;;;;;;5047962;28;20426;-84
2023/12/28 02:20:39;;;;;;;1999.90;999.90;;;1.50;91.50;;;;;;5045847;28;20029;-83
2023/12/28 02:23:05;;;;;;;1999.90;999.90;;;1.70;91.10;;;;;;5046682;28;20112;-83
2023/12/28 02:25:31;;;;;;;1999.90;999.90;;;1.60;90.80;;;;;;5031703;28;20119;-85
2023/12/28 02:27:58;;;;;;;1999.90;999.90;;;1.40;90.80;;;;;;5051643;28;20112;-84
2023/12/28 02:30:24;;;;;;;1999.90;999.90;;;1.50;91.00;;;;;;5049087;28;20036;-83
2023/12/28 02:33:12;;;;;;;1999.90;999.90;;;1.60;90.80;;;;;;5049647;28;20059;-85
2023/12/28 02:36:16;;;;;;;1999.90;999.90;;;1.70;90.60;;;;;;5064653;28;20074;-86
2023/12/28 02:38:44;;;;;;;1999.90;999.90;;;1.70;90.50;;;;;;5035869;28;20040;-84
2023/12/28 02:41:10;;;;;;;1999.90;999.90;;;1.60;90.40;;;;;;5046368;28;20175;-83
2023/12/28 02:43:36;;;;;;;1999.90;999.90;;;1.50;90.40;;;;;;5047377;28;20040;-86
2023/12/28 02:46:01;;;;;;;1999.90;999.90;;;1.60;90.30;;;;;;5060050;28;20029;-83
2023/12/28 02:48:27;;;;;;;1999.90;999.90;;;1.50;90.20;;;;;;5048010;28;20139;-84
2023/12/28 02:50:53;;;;;;;1999.90;999.90;;;1.60;90.30;;;;;;5045583;28;20049;-83
2023/12/28 02:53:18;;;;;;;1999.90;999.90;;;1.80;89.70;;;;;;5050644;28;20025;-85
2023/12/28 02:55:44;;;;;;;1999.90;999.90;;;2.00;88.10;;;;;;5031826;28;20084;-86
2023/12/28 02:58:10;;;;;;;1999.90;999.90;;;2.10;87.30;;;;;;5031797;28;20033;-86
2023/12/28 03:00:35;;;;;;;1999.90;999.90;;;2.20;86.30;;;;;;5047242;28;20033;-85
2023/12/28 03:03:01;;;;;;;1999.90;999.90;;;2.40;86.00;;;;;;5029525;28;20040;-86
2023/12/28 03:05:27;;;;;;;1999.90;999.90;;;2.40;84.80;;;;;;5045755;28;20033;-84
2023/12/28 03:07:52;;;;;;;1999.90;999.90;;;2.60;84.40;;;;;;5046041;28;20084;-85
2023/12/28 03:10:18;;;;;;;1999.90;999.90;;;2.70;82.90;;;;;;5043062;28;20037;-84
2023/12/28 03:12:44;;;;;;;1999.90;999.90;;;2.90;82.00;;;;;;5046303;28;20044;-86
2023/12/28 03:15:09;;;;;;;1999.90;999.90;;;2.80;81.70;;;;;;5045651;28;20036;-85
2023/12/28 03:17:36;;;;;;;1999.90;999.90;;;2.70;81.60;;;;;;5047104;28;20112;-86
2023/12/28 03:20:02;;;;;;;1999.90;999.90;;;2.60;81.60;;;;;;5030971;28;20574;-84
2023/12/28 03:22:28;;;;;;;1999.90;999.90;;;2.60;82.00;;;;;;5045265;28;20426;-87
2023/12/28 03:24:53;;;;;;;1999.90;999.90;;;2.60;82.20;;;;;;5038914;28;20033;-87
2023/12/28 03:27:19;;;;;;;1999.90;999.90;;;2.60;82.20;;;;;;5044258;28;20029;-86
2023/12/28 03:29:45;;;;;;;1999.90;999.90;;;2.60;82.10;;;;;;5044070;28;20048;-86
2023/12/28 03:32:10;;;;;;;1999.90;999.90;;;2.50;82.30;;;;;;5045271;28;20073;-85
2023/12/28 03:34:36;;;;;;;1999.90;999.90;;;2.60;82.10;;;;;;5047261;28;20406;-84
2023/12/28 03:37:02;;;;;;;1999.90;999.90;;;2.60;82.20;;;;;;5047417;28;20033;-87
2023/12/28 03:39:28;;;;;;;1999.90;999.90;;;2.60;82.00;;;;;;5046194;28;20037;-87
2023/12/28 03:41:54;;;;;;;1999.90;999.90;;;2.60;82.20;;;;;;5054181;28;20044;-86
2023/12/28 03:44:20;;;;;;;1999.90;999.90;;;2.70;81.90;;;;;;5041414;28;20662;-87
2023/12/28 03:46:50;;;;;;;1999.90;999.90;;;2.50;82.00;;;;;;5044804;28;20028;-85
2023/12/28 03:49:20;;;;;;;1999.90;999.90;;;2.30;82.10;;;;;;5044349;28;20395;-84
2023/12/28 03:51:49;;;;;;;1999.90;999.90;;;2.50;82.50;;;;;;5048214;28;20503;-87
2023/12/28 03:54:16;;;;;;;1999.90;999.90;;;2.30;82.80;;;;;;5046247;28;20057;-86
2023/12/28 03:56:43;;;;;;;1999.90;999.90;;;2.20;83.80;;;;;;5041821;28;20486;-88
2023/12/28 03:59:09;;;;;;;1999.90;999.90;;;2.20;83.80;;;;;;5043162;28;20053;-83
2023/12/28 04:01:35;;;;;;;1999.90;999.90;;;2.30;83.90;;;;;;5042630;28;20112;-88
2023/12/28 04:04:01;;;;;;;1999.90;999.90;;;2.30;83.40;;;;;;5044569;28;20542;-88
2023/12/28 04:06:26;;;;;;;1999.90;999.90;;;2.20;83.60;;;;;;5030892;28;20274;-87
2023/12/28 04:08:52;;;;;;;1999.90;999.90;;;2.10;83.70;;;;;;5024469;28;20403;-87
2023/12/28 04:11:18;;;;;;;1999.90;999.90;;;2.20;83.70;;;;;;5055730;28;20107;-86
2023/12/28 04:13:43;;;;;;;1999.90;999.90;;;2.20;83.70;;;;;;5044912;28;20032;-85
2023/12/28 04:16:13;;;;;;;1999.90;999.90;;;2.20;83.50;;;;;;5047114;28;20087;-84
2023/12/28 04:18:40;;;;;;;1999.90;999.90;;;2.20;82.80;;;;;;5043691;28;20024;-83
2023/12/28 04:21:11;;;;;;;1999.90;999.90;;;2.30;82.50;;;;;;5041249;28;20048;-84
2023/12/28 04:23:38;;;;;;;1999.90;999.90;;;2.30;82.60;;;;;;5044030;28;20759;-85
2023/12/28 04:26:04;;;;;;;1999.90;999.90;;;2.40;82.30;;;;;;5039503;28;20064;-86
2023/12/28 04:28:30;;;;;;;1999.90;999.90;;;2.40;82.30;;;;;;5042118;28;20123;-87
2023/12/28 04:30:56;;;;;;;1999.90;999.90;;;2.40;82.10;;;;;;5044127;28;20514;-86
2023/12/28 04:33:22;;;;;;;1999.90;999.90;;;2.70;81.00;;;;;;5042389;28;20036;-87
2023/12/28 04:35:47;;;;;;;1999.90;999.90;;;2.60;80.90;;;;;;5044516;28;20032;-86
2023/12/28 04:38:13;;;;;;;1999.90;999.90;;;2.60;81.00;;;;;;5044528;28;20032;-87
2023/12/28 04:40:39;;;;;;;1999.90;999.90;;;2.60;81.00;;;;;;5028977;28;20147;-86
2023/12/28 04:43:04;;;;;;;1999.90;999.90;;;2.60;81.20;;;;;;5029593;28;20372;-84
2023/12/28 04:45:30;;;;;;;1999.90;999.90;;;2.50;81.20;;;;;;5042495;28;20017;-86
2023/12/28 04:47:56;;;;;;;1999.90;999.90;;;2.40;81.40;;;;;;5045823;28;20033;-86
2023/12/28 04:50:22;;;;;;;1999.90;999.90;;;2.20;81.90;;;;;;5045130;28;20049;-85
2023/12/28 04:52:47;;;;;;;1999.90;999.90;;;2.00;82.20;;;;;;5030903;28;20039;-86
2023/12/28 04:55:14;;;;;;;1999.90;999.90;;;2.00;82.90;;;;;;5044679;28;20479;-87
2023/12/28 04:57:41;;;;;;;1999.90;999.90;;;2.10;82.80;;;;;;5045337;28;20036;-87
2023/12/28 05:00:08;;;;;;;1999.90;999.90;;;2.20;82.40;;;;;;5041784;28;20037;-85
2023/12/28 05:02:34;;;;;;;1999.90;999.90;;;2.20;82.10;;;;;;5043875;28;20155;-86
2023/12/28 05:04:59;;;;;;;1999.90;999.90;;;2.30;81.70;;;;;;5044576;28;20112;-88
2023/12/28 05:07:25;;;;;;;1999.90;999.90;;;2.20;82.00;;;;;;5056425;28;20033;-86
2023/12/28 05:09:51;;;;;;;1999.90;999.90;;;2.20;82.00;;;;;;5045873;28;20119;-86
2023/12/28 05:12:17;;;;;;;1999.90;999.90;;;2.20;81.20;;;;;;5028855;28;20476;-86
2023/12/28 05:14:42;;;;;;;1999.90;999.90;;;2.20;81.50;;;;;;5047262;28;20070;-86
2023/12/28 05:17:08;;;;;;;1999.90;999.90;;;2.20;81.50;;;;;;5030147;28;20632;-88
2023/12/28 05:19:34;;;;;;;1999.90;999.90;;;2.30;81.10;;;;;;5029245;28;20032;-86
2023/12/28 05:22:03;;;;;;;1999.90;999.90;;;2.30;80.80;;;;;;5025845;28;20032;-83
2023/12/28 05:24:29;;;;;;;1999.90;999.90;;;2.50;79.60;;;;;;5042399;28;20029;-84
2023/12/28 05:26:55;;;;;;;1999.90;999.90;;;2.80;78.40;;;;;;5045517;28;20028;-87
2023/12/28 05:29:21;;;;;;;1999.90;999.90;;;2.90;77.40;;;;;;5045523;28;20029;-87
2023/12/28 05:31:46;;;;;;;1999.90;999.90;;;3.00;77.10;;;;;;5046089;28;20041;-86
2023/12/28 05:34:13;;;;;;;1999.90;999.90;;;2.90;77.70;;;;;;5054357;28;20029;-85
2023/12/28 05:36:41;;;;;;;1999.90;999.90;;;2.90;77.60;;;;;;5028199;28;20095;-84
2023/12/28 05:39:09;;;;;;;1999.90;999.90;;;2.90;77.30;;;;;;5041348;28;20025;-88
2023/12/28 05:41:34;;;;;;;1999.90;999.90;;;3.00;77.10;;;;;;5040773;28;20395;-88
2023/12/28 05:44:00;;;;;;;1999.90;999.90;;;3.00;76.80;;;;;;5043934;28;20114;-88
2023/12/28 05:46:26;;;;;;;1999.90;999.90;;;3.00;76.60;;;;;;5026633;28;20399;-87
2023/12/28 05:48:52;;;;;;;1999.90;999.90;;;3.20;76.00;;;;;;5042512;28;20112;-88
2023/12/28 05:51:18;;;;;;;1999.90;999.90;;;3.10;76.50;;;;;;5042022;28;20465;-86
2023/12/28 05:53:44;;;;;;;1999.90;999.90;;;3.30;75.20;;;;;;5043524;28;20175;-88
2023/12/28 05:56:09;;;;;;;1999.90;999.90;;;3.10;75.30;;;;;;5042209;28;20616;-87
2023/12/28 05:58:36;;;;;;;1999.90;999.90;;;3.30;75.00;;;;;;5044424;28;20037;-89
2023/12/28 06:01:04;;;;;;;1999.90;999.90;;;3.20;74.80;;;;;;5043233;28;20074;-87
2023/12/28 06:03:30;;;;;;;1999.90;999.90;;;3.50;74.40;;;;;;5043280;28;20115;-88
2023/12/28 06:05:56;;;;;;;1999.90;999.90;;;3.50;73.60;;;;;;5042903;28;20057;-87
2023/12/28 06:08:22;;;;;;;1999.90;999.90;;;3.60;73.30;;;;;;5045112;28;20084;-84
2023/12/28 06:10:48;;;;;;;1999.90;999.90;;;3.70;72.70;;;;;;5045407;28;20033;-88
2023/12/28 06:13:14;;;;;;;1999.90;999.90;;;3.80;72.60;;;;;;5042615;28;20075;-88
2023/12/28 06:15:40;;;;;;;1999.90;999.90;;;3.80;72.60;;;;;;5028890;28;20032;-88
2023/12/28 06:18:06;;;;;;;1999.90;999.90;;;3.90;72.00;;;;;;5044589;28;20129;-88
2023/12/28 06:20:32;;;;;;;1999.90;999.90;;;3.80;72.30;;;;;;5042972;28;20036;-88
2023/12/28 06:22:58;;;;;;;1999.90;999.90;;;3.70;73.30;;;;;;5043287;28;20043;-87
2023/12/28 06:25:23;;;;;;;1999.90;999.90;;;3.60;73.70;;;;;;5041903;28;20158;-87
2023/12/28 06:27:49;;;;;;;1999.90;999.90;;;3.50;74.20;;;;;;5040840;28;20578;-88
2023/12/28 06:30:15;;;;;;;1999.90;999.90;;;3.50;74.10;;;;;;5044847;28;20675;-85
2023/12/28 06:32:40;;;;;;;1999.90;999.90;;;3.40;74.00;;;;;;5042976;28;20037;-88
2023/12/28 06:35:06;;;;;;;1999.90;999.90;;;3.30;74.50;;;;;;5024952;28;20055;-85
2023/12/28 06:37:32;;;;;;;1999.90;999.90;;;3.30;74.70;;;;;;5042164;28;20052;-88
2023/12/28 06:39:58;;;;;;;1999.90;999.90;;;3.20;75.10;;;;;;5026516;28;20037;-89
2023/12/28 06:42:23;;;;;;;1999.90;999.90;;;3.30;75.00;;;;;;5041800;28;20513;-86
2023/12/28 06:44:49;;;;;;;1999.90;999.90;;;3.30;74.80;;;;;;5043257;28;20040;-86
2023/12/28 06:47:15;;;;;;;1999.90;999.90;;;3.20;75.00;;;;;;5054973;28;20025;-89
2023/12/28 06:49:40;;;;;;;1999.90;999.90;;;3.30;75.00;;;;;;5045289;28;20041;-88
2023/12/28 06:52:06;;;;;;;1999.90;999.90;;;3.30;74.70;;;;;;5045016;28;20403;-88
2023/12/28 06:54:32;;;;;;;1999.90;999.90;;;3.00;75.90;;;;;;5046489;28;20044;-89
2023/12/28 06:56:57;;;;;;;1999.90;999.90;;;2.90;76.40;;;;;;5043988;28;20072;-88
2023/12/28 06:59:23;;;;;;;1999.90;999.90;;;3.10;76.00;;;;;;5038051;28;20037;-88
2023/12/28 07:01:49;;;;;;;1999.90;999.90;;;3.10;76.50;;;;;;5041645;28;20032;-88
2023/12/28 07:04:15;;;;;;;1999.90;999.90;;;3.00;76.20;;;;;;5024270;28;20068;-88
2023/12/28 07:06:40;;;;;;;1999.90;999.90;;;3.00;75.80;;;;;;5043364;28;20029;-88
2023/12/28 07:09:07;;;;;;;1999.90;999.90;;;3.10;75.10;;;;;;5043522;28;20394;-89
2023/12/28 07:11:32;;;;;;;1999.90;999.90;;;3.00;75.20;;;;;;5044830;28;20059;-88
2023/12/28 07:13:58;;;;;;;1999.90;999.90;;;3.20;74.90;;;;;;5042533;28;20029;-87
2023/12/28 07:16:24;;;;;;;1999.90;999.90;;;3.00;75.20;;;;;;5045037;28;20052;-88
2023/12/28 07:18:49;;;;;;;1999.90;999.90;;;2.90;75.80;;;;;;5023298;28;20033;-87
2023/12/28 07:21:15;;;;;;;1999.90;999.90;;;3.10;75.30;;;;;;5040164;28;20032;-87
2023/12/28 07:23:41;;;;;;;1999.90;999.90;;;3.30;74.30;;;;;;5038869;28;20021;-87
2023/12/28 07:26:06;;;;;;;1999.90;999.90;;;3.30;74.10;;;;;;5040858;28;20589;-87
2023/12/28 07:28:32;;;;;;;1999.90;999.90;;;3.30;74.10;;;;;;5039324;28;20067;-88
2023/12/28 07:30:58;;;;;;;1999.90;999.90;;;3.30;74.20;;;;;;5058799;28;20036;-85
2023/12/28 07:33:23;;;;;;;1999.90;999.90;;;3.10;75.20;;;;;;5047310;28;20068;-85
2023/12/28 07:35:49;;;;;;;1999.90;999.90;;;3.00;75.40;;;;;;5031970;28;20371;-88
2023/12/28 07:38:15;;;;;;;1999.90;999.90;;;3.10;75.30;;;;;;5046043;28;20151;-87
2023/12/28 07:40:41;;;;;;;1999.90;999.90;;;3.20;75.00;;;;;;5045927;28;20055;-88
2023/12/28 07:43:07;;;;;;;1999.90;999.90;;;3.30;74.60;;;;;;5049028;28;20041;-87
2023/12/28 07:45:33;;;;;;;1999.90;999.90;;;3.60;74.40;;;;;;5048532;28;20497;-86
2023/12/28 07:48:01;;;;;;;1999.90;999.90;;;3.70;73.50;;;;;;5049563;28;20104;-88
2023/12/28 07:50:27;;;;;;;1999.90;999.90;;;3.70;73.50;;;;;;5048469;28;20049;-86
2023/12/28 07:52:53;;;;;;;1999.90;999.90;;;3.80;72.70;;;;;;5046442;28;20041;-87
2023/12/28 07:55:19;;;;;;;1999.90;999.90;;;3.80;72.30;;;;;;5061555;28;20112;-88
2023/12/28 07:57:45;;;;;;;1999.90;999.90;;;3.90;72.40;;;;;;5030724;28;20028;-87
2023/12/28 08:00:11;;;;;;;1999.90;999.90;;;3.90;72.30;;;;;;5062224;28;20513;-87
2023/12/28 08:02:37;;;;;;;1999.90;999.90;;;4.00;72.20;;;;;;5050542;28;20041;-87
2023/12/28 08:05:04;;;;;;;1999.90;999.90;;;4.00;72.10;;;;;;5050586;28;20027;-88
2023/12/28 08:07:30;;;;;;;1999.90;999.90;;;4.00;71.90;;;;;;5045289;28;20075;-86
2023/12/28 08:09:55;;;;;;;1999.90;999.90;;;3.90;72.20;;;;;;5048941;28;20049;-87
2023/12/28 08:12:21;;;;;;;1999.90;999.90;;;3.90;72.20;;;;;;5045885;28;20040;-89
2023/12/28 08:14:47;;;;;;;1999.90;999.90;;;4.00;71.50;;;;;;5048309;28;20590;-89
2023/12/28 08:17:13;;;;;;;1999.90;999.90;;;4.30;69.70;;;;;;5030322;28;20044;-88
2023/12/28 08:19:38;;;;;;;1999.90;999.90;;;4.40;69.90;;;;;;5046185;28;20410;-89
2023/12/28 08:22:04;;;;;;;1999.90;999.90;;;4.50;68.90;;;;;;5048503;28;20036;-88
2023/12/28 08:24:30;;;;;;;1999.90;999.90;;;4.60;69.00;;;;;;5046365;28;20056;-88
2023/12/28 08:26:59;;;;;;;1999.90;999.90;;;4.80;67.50;;;;;;5046142;28;20032;-84
2023/12/28 08:29:25;;;;;;;1999.90;999.90;;;4.70;67.40;;;;;;5044925;28;20033;-88
2023/12/28 08:31:51;;;;;;;1999.90;999.90;;;4.80;67.30;;;;;;5044904;28;20037;-85
2023/12/28 08:34:16;;;;;;;1999.90;999.90;;;4.90;67.50;;;;;;5042593;28;20507;-87
2023/12/28 08:36:42;;;;;;;1999.90;999.90;;;4.90;67.10;;;;;;5030702;28;20492;-87
2023/12/28 08:39:08;;;;;;;1999.90;999.90;;;5.00;67.10;;;;;;5056715;28;20498;-87
2023/12/28 08:41:34;;;;;;;1999.90;999.90;;;5.00;67.20;;;;;;5047456;28;20047;-88
2023/12/28 08:43:59;;;;;;;1999.90;999.90;;;5.10;66.10;;;;;;5043664;28;20029;-85
2023/12/28 08:46:25;;;;;;;1999.90;999.90;;;5.10;66.50;;;;;;5047714;28;20040;-86
2023/12/28 08:48:51;;;;;;;1999.90;999.90;;;5.30;66.20;;;;;;5011422;28;20079;-84
2023/12/28 08:51:17;;;;;;;1999.90;999.90;;;5.40;65.30;;;;;;5056337;28;20045;-87
2023/12/28 08:53:44;;;;;;;1999.90;999.90;;;5.50;67.10;;;;;;5047361;28;20037;-85
2023/12/28 08:56:16;;;;;;;1999.90;999.90;;;5.50;65.20;;;;;;5045764;28;20035;-85
2023/12/28 08:58:42;;;;;;;1999.90;999.90;;;5.50;66.50;;;;;;5043236;28;20074;-83
2023/12/28 09:01:08;;;;;;;1999.90;999.90;;;5.50;66.40;;;;;;5044165;28;20650;-84
2023/12/28 09:03:33;;;;;;;1999.90;999.90;;;5.50;66.10;;;;;;5029083;28;20056;-83
2023/12/28 09:05:59;;;;;;;1999.90;999.90;;;5.50;65.40;;;;;;5025841;28;20519;-86
2023/12/28 09:08:26;;;;;;;1999.90;999.90;;;5.60;66.30;;;;;;5045807;28;20378;-91
2023/12/28 09:10:52;;;;;;;1999.90;999.90;;;5.50;65.50;;;;;;5046218;28;20048;-80
2023/12/28 09:13:19;;;;;;;1999.90;999.90;;;5.60;66.00;;;;;;5047666;28;20083;-74
2023/12/28 09:15:45;;;;;;;1999.90;999.90;;;5.70;65.20;;;;;;5044710;28;20079;-73
2023/12/28 09:18:11;;;;;;;1999.90;999.90;;;5.70;64.20;;;;;;5043208;28;20542;-73
2023/12/28 09:20:37;;;;;;;1999.90;999.90;;;5.60;66.00;;;;;;5044706;28;20067;-71
2023/12/28 09:23:03;;;;;;;1999.90;999.90;;;5.70;65.90;;;;;;5027176;28;20648;-72
2023/12/28 09:25:28;;;;;;;1999.90;999.90;;;5.80;64.10;;;;;;5044373;28;20033;-72
2023/12/28 09:27:54;;;;;;;1999.90;999.90;;;5.80;65.10;;;;;;5042947;28;20086;-72
2023/12/28 09:30:20;;;;;;;1999.90;999.90;;;5.90;65.10;;;;;;5043106;28;20044;-71
2023/12/28 09:32:46;;;;;;;1999.90;999.90;;;5.90;64.10;;;;;;5043712;28;20025;-73
2023/12/28 09:35:11;;;;;;;1999.90;999.90;;;5.90;65.30;;;;;;5029314;28;20037;-71
2023/12/28 09:37:37;;;;;;;1999.90;999.90;;;5.90;64.80;;;;;;5040797;28;20091;-72
2023/12/28 09:40:03;;;;;;;1999.90;999.90;;;5.90;65.20;;;;;;5045832;28;20525;-72
2023/12/28 09:42:37;;;;;;;1999.90;999.90;;;5.90;65.90;;;;;;5046110;28;20072;-72
2023/12/28 09:45:03;;;;;;;1999.90;999.90;;;5.90;66.40;;;;;;5046689;28;20033;-73
2023/12/28 09:47:32;;;;;;;1999.90;999.90;;;6.00;65.60;;;;;;5045155;28;20083;-77
2023/12/28 09:49:59;;;;;;;1999.90;999.90;;;6.10;66.30;;;;;;5044617;28;20140;-86
2023/12/28 09:52:25;;;;;;;1999.90;999.90;;;6.20;64.70;;;;;;5045216;28;20033;-87
2023/12/28 09:54:50;;;;;;;1999.90;999.90;;;6.30;65.60;;;;;;5041089;28;20083;-87
2023/12/28 09:57:17;;;;;;;1999.90;999.90;;;6.30;65.70;;;;;;5043177;28;20034;-87
2023/12/28 09:59:43;;;;;;;1999.90;999.90;;;6.20;64.40;;;;;;5045929;28;20479;-87
2023/12/28 10:02:10;;;;;;;1999.90;999.90;;;6.30;64.80;;;;;;5041702;28;20059;-86
2023/12/28 10:04:36;;;;;;;1999.90;999.90;;;6.30;64.70;;;;;;5053572;28;20033;-86
2023/12/28 10:07:02;;;;;;;1999.90;999.90;;;6.30;64.30;;;;;;5044055;28;20097;-86
2023/12/28 10:09:28;;;;;;;1999.90;999.90;;;6.30;64.30;;;;;;5042317;28;20045;-76
2023/12/28 10:11:56;;;;;;;1999.90;999.90;;;6.30;63.40;;;;;;5042631;28;20082;-84
2023/12/28 10:14:22;;;;;;;1999.90;999.90;;;6.40;64.10;;;;;;5041868;28;20033;-84
2023/12/28 10:16:48;;;;;;;1999.90;999.90;;;6.40;64.60;;;;;;5025390;28;20698;-81
2023/12/28 10:19:14;;;;;;;1999.90;999.90;;;6.40;63.80;;;;;;5042381;28;20114;-82
2023/12/28 10:21:41;;;;;;;1999.90;999.90;;;6.30;63.20;;;;;;5045233;28;20582;-88
2023/12/28 10:24:06;;;;;;;1999.90;999.90;;;6.30;65.10;;;;;;5027495;28;20032;-82
2023/12/28 10:26:32;;;;;;;1999.90;999.90;;;6.20;64.60;;;;;;5042330;28;20060;-84
2023/12/28 10:29:02;;;;;;;1999.90;999.90;;;6.20;64.40;;;;;;5042116;28;20033;-82
2023/12/28 10:31:28;;;;;;;;;;;6.30;64.70;;;;;;5025790;28;20869;-84
2023/12/28 10:33:57;;;;;;;1999.90;999.90;;;6.30;64.80;;;;;;5040024;28;20011;-82
2023/12/28 10:36:24;;;;;;;1999.90;999.90;;;6.20;64.90;;;;;;5044565;28;20490;-85
2023/12/28 10:38:53;;;;;;;1999.90;999.90;;;6.20;64.70;;;;;;5025106;28;20760;-83
2023/12/28 10:41:19;;;;;;;1999.90;999.90;;;6.10;64.80;;;;;;5042241;28;20094;-82
2023/12/28 10:44:05;;;;;;;1999.90;999.90;;;6.10;65.60;;;;;;5044386;28;20560;-84
2023/12/28 10:46:35;;;;;;;1999.90;999.90;;;6.10;65.30;;;;;;5042814;28;20476;-84
2023/12/28 10:49:09;;;;;;;1999.90;999.90;;;6.10;64.20;;;;;;5027855;28;20029;-80
2023/12/28 10:51:38;;;;;;;1999.90;999.90;;;6.20;64.00;;;;;;5056883;28;20542;-80
2023/12/28 10:54:33;;;;;;;1999.90;999.90;;;6.40;64.30;;;;;;5043134;28;20029;-81
2023/12/28 10:57:34;;;;;;;1999.90;999.90;;;6.50;63.80;;;;;;5043700;28;20513;-83
2023/12/28 11:00:22;;;;;;;1999.90;999.90;;;6.50;63.80;;;;;;5033539;28;20091;-79
2023/12/28 11:02:52;;;;;;;1999.90;999.90;;;6.40;63.20;;;;;;5041265;28;20083;-80
2023/12/28 11:05:22;;;;;;;1999.90;999.90;;;6.40;63.30;;;;;;5045714;28;20033;-81
2023/12/28 11:07:53;;;;;;;1999.90;999.90;;;6.40;63.30;;;;;;5047363;28;20036;-79
2023/12/28 11:10:23;;;;;;;1999.90;999.90;;;6.40;63.50;;;;;;5047391;28;20499;-82
2023/12/28 11:12:51;;;;;;;1999.90;999.90;;;6.50;63.70;;;;;;5030421;28;20055;-80
2023/12/28 11:15:18;;;;;;;1999.90;999.90;;;6.50;62.90;;;;;;5043899;28;20116;-80
2023/12/28 11:17:44;;;;;;;1999.90;999.90;;;6.60;63.90;;;;;;5046647;28;20037;-82
2023/12/28 11:20:10;;;;;;;1999.90;999.90;;;6.60;63.30;;;;;;5048743;28;20467;-81
2023/12/28 11:22:37;;;;;;;1999.90;999.90;;;6.60;64.50;;;;;;5030660;28;21304;-80
2023/12/28 11:25:04;;;;;;;1999.90;999.90;;;6.60;63.80;;;;;;5039561;28;20132;-85
2023/12/28 11:27:36;;;;;;;1999.90;999.90;;;6.60;64.10;;;;;;5045753;28;20025;-83
2023/12/28 11:30:06;;;;;;;1999.90;999.90;;;6.60;64.40;;;;;;5047524;28;20052;-82
2023/12/28 11:32:42;;;;;;;1999.90;999.90;;;6.60;64.20;;;;;;5044755;28;20755;-80
2023/12/28 11:35:10;;;;;;;1999.90;999.90;;;6.60;63.80;;;;;;5048543;28;20533;-82
2023/12/28 11:37:39;;;;;;;1999.90;999.90;;;6.80;63.40;;;;;;5042534;28;20033;-85
2023/12/28 11:40:16;;;;;;;1999.90;999.90;;;6.80;62.90;;;;;;5045112;28;20033;-80
2023/12/28 11:42:53;;;;;;;1999.90;999.90;;;6.90;63.70;;;;;;5048578;28;20040;-85
2023/12/28 11:45:23;;;;;;;1999.90;999.90;;;7.00;63.00;;;;;;5046507;28;20040;-84
2023/12/28 11:48:02;;;;;;;1999.90;999.90;;;7.00;63.20;;;;;;5047966;28;20499;-84
2023/12/28 11:50:28;;;;;;;1999.90;999.90;;;7.20;62.00;;;;;;5043179;28;20094;-81
2023/12/28 11:52:53;;;;;;;1999.90;999.90;;;7.30;62.30;;;;;;5048075;28;20044;-81
2023/12/28 11:55:23;;;;;;;1999.90;999.90;;;7.20;61.50;;;;;;5046125;28;20125;-82
2023/12/28 11:57:49;;;;;;;1999.90;999.90;;;7.30;62.30;;;;;;5047600;28;20075;-84
2023/12/28 12:00:15;;;;;;;1999.90;999.90;;;7.40;62.20;;;;;;5047928;28;20088;-83
2023/12/28 12:02:45;;;;;;;1999.90;999.90;;;7.50;61.80;;;;;;5029206;28;20037;-84
2023/12/28 12:05:11;;;;;;;1999.90;999.90;;;7.60;61.10;;;;;;5045029;28;20079;-82
2023/12/28 12:07:37;;;;;;;1999.90;999.90;;;7.60;60.30;;;;;;5048794;28;20317;-85